sensor_id;sensor_type;location;lat;lon;timestamp;temperature;humidity
3300;DHT22;1662;49.310;8.134;2023-10-19T00:01:59;11.00;99.90
3300;DHT22;1662;49.310;8.134;2023-10-19T00:04:25;11.00;99.90
3300;DHT22;1662;49.310;8.134;2023-10-19T00:06:53;11.00;99.90
3300;DHT22;1662;49.310;8.134;2023-10-19T00:09:19;11.10;99.90
3300;DHT22;1662;49.310;8.134;2023-10-19T00:11:47;11.10;99.90
3300;DHT22;1662;49.310;8.134;2023-10-19T00:14:16;11.10;99.90
3300;DHT22;1662;49.310;8.134;2023-10-19T00:16:43;11.10;99.90
3300;DHT22;1662;49.310;8.134;2023-10-19T00:19:15;11.10;99.90
3300;DHT22;1662;49.310;8.134;2023-10-19T00:21:45;11.10;99.90
3300;DHT22;1662;49.310;8.134;2023-10-19T00:24:19;11.10;99.90
3300;DHT22;1662;49.310;8.134;2023-10-19T00:26:47;11.10;99.90
3300;DHT22;1662;49.310;8.134;2023-10-19T00:29:22;11.10;99.90
3300;DHT22;1662;49.310;8.134;2023-10-19T00:31:58;11.10;99.90
3300;DHT22;1662;49.310;8.134;2023-10-19T00:34:28;11.10;99.90
3300;DHT22;1662;49.310;8.134;2023-10-19T00:36:55;11.10;99.90
3300;DHT22;1662;49.310;8.134;2023-10-19T00:39:35;11.10;99.90
3300;DHT22;1662;49.310;8.134;2023-10-19T00:42:15;11.10;99.90
3300;DHT22;1662;49.310;8.134;2023-10-19T00:44:45;11.10;99.90
3300;DHT22;1662;49.310;8.134;2023-10-19T00:47:15;11.00;99.90
3300;DHT22;1662;49.310;8.134;2023-10-19T00:49:46;11.00;99.90
3300;DHT22;1662;49.310;8.134;2023-10-19T00:52:12;11.00;99.90
3300;DHT22;1662;49.310;8.134;2023-10-19T00:54:46;11.00;99.90
3300;DHT22;1662;49.310;8.134;2023-10-19T00:57:16;11.00;99.90
3300;DHT22;1662;49.310;8.134;2023-10-19T00:59:46;11.10;99.90
3300;DHT22;1662;49.310;8.134;2023-10-19T01:02:20;11.10;99.90
3300;DHT22;1662;49.310;8.134;2023-10-19T01:04:52;11.10;99.90
3300;DHT22;1662;49.310;8.134;2023-10-19T01:07:22;11.10;99.90
3300;DHT22;1662;49.310;8.134;2023-10-19T01:10:00;11.10;99.90
3300;DHT22;1662;49.310;8.134;2023-10-19T01:12:29;11.10;99.90
3300;DHT22;1662;49.310;8.134;2023-10-19T01:17:38;11.10;99.90
3300;DHT22;1662;49.310;8.134;2023-10-19T01:20:10;11.10;99.90
3300;DHT22;1662;49.310;8.134;2023-10-19T01:23:04;11.10;99.90
3300;DHT22;1662;49.310;8.134;2023-10-19T01:28:09;11.10;99.90
3300;DHT22;1662;49.310;8.134;2023-10-19T01:30:36;11.20;99.90
3300;DHT22;1662;49.310;8.134;2023-10-19T01:33:04;11.20;99.90
3300;DHT22;1662;49.310;8.134;2023-10-19T01:35:30;11.20;99.90
3300;DHT22;1662;49.310;8.134;2023-10-19T01:38:16;11.20;99.90
3300;DHT22;1662;49.310;8.134;2023-10-19T01:40:41;11.20;99.90
3300;DHT22;1662;49.310;8.134;2023-10-19T01:43:12;11.10;99.90
3300;DHT22;1662;49.310;8.134;2023-10-19T01:45:47;11.10;99.90
3300;DHT22;1662;49.310;8.134;2023-10-19T01:48:13;11.10;99.90
3300;DHT22;1662;49.310;8.134;2023-10-19T01:50:39;11.10;99.90
3300;DHT22;1662;49.310;8.134;2023-10-19T01:53:05;11.10;99.90
3300;DHT22;1662;49.310;8.134;2023-10-19T01:55:44;11.20;99.90
3300;DHT22;1662;49.310;8.134;2023-10-19T01:58:09;11.20;99.90
3300;DHT22;1662;49.310;8.134;2023-10-19T02:00:36;11.20;99.90
3300;DHT22;1662;49.310;8.134;2023-10-19T02:03:11;11.20;99.90
3300;DHT22;1662;49.310;8.134;2023-10-19T02:05:39;11.20;99.90
3300;DHT22;1662;49.310;8.134;2023-10-19T02:08:06;11.30;99.90
3300;DHT22;1662;49.310;8.134;2023-10-19T02:10:37;11.20;99.90
3300;DHT22;1662;49.310;8.134;2023-10-19T02:13:08;11.20;99.90
3300;DHT22;1662;49.310;8.134;2023-10-19T02:15:34;11.30;99.90
3300;DHT22;1662;49.310;8.134;2023-10-19T02:18:02;11.30;99.90
3300;DHT22;1662;49.310;8.134;2023-10-19T02:20:30;11.30;99.90
3300;DHT22;1662;49.310;8.134;2023-10-19T02:22:57;11.30;99.90
3300;DHT22;1662;49.310;8.134;2023-10-19T02:25:24;11.30;99.90
3300;DHT22;1662;49.310;8.134;2023-10-19T02:28:03;11.30;99.90
3300;DHT22;1662;49.310;8.134;2023-10-19T02:30:29;11.30;99.90
3300;DHT22;1662;49.310;8.134;2023-10-19T02:32:56;11.30;99.90
3300;DHT22;1662;49.310;8.134;2023-10-19T02:35:22;11.30;99.90
3300;DHT22;1662;49.310;8.134;2023-10-19T02:37:47;11.30;99.90
3300;DHT22;1662;49.310;8.134;2023-10-19T02:40:13;11.30;99.90
3300;DHT22;1662;49.310;8.134;2023-10-19T02:42:46;11.40;99.90
3300;DHT22;1662;49.310;8.134;2023-10-19T02:45:14;11.40;99.90
3300;DHT22;1662;49.310;8.134;2023-10-19T02:47:43;11.40;99.90
3300;DHT22;1662;49.310;8.134;2023-10-19T02:50:09;11.40;99.90
3300;DHT22;1662;49.310;8.134;2023-10-19T02:52:48;11.40;99.90
3300;DHT22;1662;49.310;8.134;2023-10-19T02:55:14;11.30;99.90
3300;DHT22;1662;49.310;8.134;2023-10-19T02:57:42;11.40;99.90
3300;DHT22;1662;49.310;8.134;2023-10-19T03:00:12;11.40;99.90
3300;DHT22;1662;49.310;8.134;2023-10-19T03:02:40;11.40;99.90
3300;DHT22;1662;49.310;8.134;2023-10-19T03:05:06;11.40;99.90
3300;DHT22;1662;49.310;8.134;2023-10-19T03:07:43;11.40;99.90
3300;DHT22;1662;49.310;8.134;2023-10-19T03:10:10;11.40;99.90
3300;DHT22;1662;49.310;8.134;2023-10-19T03:12:50;11.40;99.90
3300;DHT22;1662;49.310;8.134;2023-10-19T03:15:17;11.40;99.90
3300;DHT22;1662;49.310;8.134;2023-10-19T03:17:46;11.40;99.90
3300;DHT22;1662;49.310;8.134;2023-10-19T03:20:15;11.40;99.90
3300;DHT22;1662;49.310;8.134;2023-10-19T03:22:43;11.40;99.90
3300;DHT22;1662;49.310;8.134;2023-10-19T03:25:11;11.50;99.90
3300;DHT22;1662;49.310;8.134;2023-10-19T03:27:56;11.40;99.90
3300;DHT22;1662;49.310;8.134;2023-10-19T03:30:22;11.40;99.90
3300;DHT22;1662;49.310;8.134;2023-10-19T03:32:53;11.50;99.90
3300;DHT22;1662;49.310;8.134;2023-10-19T03:35:18;11.40;99.90
3300;DHT22;1662;49.310;8.134;2023-10-19T03:37:46;11.40;99.90
3300;DHT22;1662;49.310;8.134;2023-10-19T03:40:14;11.40;99.90
3300;DHT22;1662;49.310;8.134;2023-10-19T03:42:45;11.40;99.90
3300;DHT22;1662;49.310;8.134;2023-10-19T03:45:12;11.40;99.90
3300;DHT22;1662;49.310;8.134;2023-10-19T03:47:40;11.40;99.90
3300;DHT22;1662;49.310;8.134;2023-10-19T03:50:09;11.40;99.90
3300;DHT22;1662;49.310;8.134;2023-10-19T03:52:39;11.40;99.90
3300;DHT22;1662;49.310;8.134;2023-10-19T03:55:10;11.40;99.90
3300;DHT22;1662;49.310;8.134;2023-10-19T03:57:54;11.40;99.90
3300;DHT22;1662;49.310;8.134;2023-10-19T04:00:20;11.40;99.90
3300;DHT22;1662;49.310;8.134;2023-10-19T04:02:51;11.40;99.90
3300;DHT22;1662;49.310;8.134;2023-10-19T04:05:21;11.40;99.90
3300;DHT22;1662;49.310;8.134;2023-10-19T04:07:51;11.50;99.90
3300;DHT22;1662;49.310;8.134;2023-10-19T04:10:20;11.50;99.90
3300;DHT22;1662;49.310;8.134;2023-10-19T04:12:55;11.60;99.90
3300;DHT22;1662;49.310;8.134;2023-10-19T04:15:21;11.60;99.90
3300;DHT22;1662;49.310;8.134;2023-10-19T04:17:48;11.60;99.90
3300;DHT22;1662;49.310;8.134;2023-10-19T04:20:18;11.60;99.90
3300;DHT22;1662;49.310;8.134;2023-10-19T04:22:45;11.70;99.90
3300;DHT22;1662;49.310;8.134;2023-10-19T04:25:12;11.70;99.90
3300;DHT22;1662;49.310;8.134;2023-10-19T04:27:39;11.70;99.90
3300;DHT22;1662;49.310;8.134;2023-10-19T04:30:11;11.70;99.90
3300;DHT22;1662;49.310;8.134;2023-10-19T04:32:50;11.80;99.90
3300;DHT22;1662;49.310;8.134;2023-10-19T04:35:16;11.80;99.90
3300;DHT22;1662;49.310;8.134;2023-10-19T04:37:52;11.80;99.90
3300;DHT22;1662;49.310;8.134;2023-10-19T04:40:18;11.80;99.90
3300;DHT22;1662;49.310;8.134;2023-10-19T04:42:45;11.80;99.90
3300;DHT22;1662;49.310;8.134;2023-10-19T04:45:12;11.80;99.90
3300;DHT22;1662;49.310;8.134;2023-10-19T04:47:38;11.80;99.90
3300;DHT22;1662;49.310;8.134;2023-10-19T04:50:05;11.80;99.90
3300;DHT22;1662;49.310;8.134;2023-10-19T04:52:31;11.80;99.90
3300;DHT22;1662;49.310;8.134;2023-10-19T04:54:58;11.90;99.90
3300;DHT22;1662;49.310;8.134;2023-10-19T04:57:25;11.90;99.90
3300;DHT22;1662;49.310;8.134;2023-10-19T04:59:51;11.90;99.90
3300;DHT22;1662;49.310;8.134;2023-10-19T05:02:17;11.90;99.90
3300;DHT22;1662;49.310;8.134;2023-10-19T05:04:43;11.90;99.90
3300;DHT22;1662;49.310;8.134;2023-10-19T05:07:09;11.90;99.90
3300;DHT22;1662;49.310;8.134;2023-10-19T05:09:38;12.00;99.90
3300;DHT22;1662;49.310;8.134;2023-10-19T05:12:06;12.00;99.90
3300;DHT22;1662;49.310;8.134;2023-10-19T05:14:44;12.00;99.90
3300;DHT22;1662;49.310;8.134;2023-10-19T05:17:11;12.00;99.90
3300;DHT22;1662;49.310;8.134;2023-10-19T05:19:39;12.00;99.90
3300;DHT22;1662;49.310;8.134;2023-10-19T05:22:06;12.00;99.90
3300;DHT22;1662;49.310;8.134;2023-10-19T05:24:33;12.00;99.90
3300;DHT22;1662;49.310;8.134;2023-10-19T05:26:58;12.00;99.90
3300;DHT22;1662;49.310;8.134;2023-10-19T05:29:24;12.00;99.90
3300;DHT22;1662;49.310;8.134;2023-10-19T05:31:55;12.00;99.90
3300;DHT22;1662;49.310;8.134;2023-10-19T05:34:23;12.00;99.90
3300;DHT22;1662;49.310;8.134;2023-10-19T05:36:49;12.00;99.90
3300;DHT22;1662;49.310;8.134;2023-10-19T05:39:16;12.00;99.90
3300;DHT22;1662;49.310;8.134;2023-10-19T05:41:44;12.00;99.90
3300;DHT22;1662;49.310;8.134;2023-10-19T05:44:10;12.10;99.90
3300;DHT22;1662;49.310;8.134;2023-10-19T05:46:38;12.00;99.90
3300;DHT22;1662;49.310;8.134;2023-10-19T05:49:06;12.00;99.90
3300;DHT22;1662;49.310;8.134;2023-10-19T05:51:32;12.00;99.90
3300;DHT22;1662;49.310;8.134;2023-10-19T05:53:58;12.00;99.90
3300;DHT22;1662;49.310;8.134;2023-10-19T05:56:30;12.00;99.90
3300;DHT22;1662;49.310;8.134;2023-10-19T05:58:56;12.10;99.90
3300;DHT22;1662;49.310;8.134;2023-10-19T06:01:23;12.10;99.90
3300;DHT22;1662;49.310;8.134;2023-10-19T06:03:48;12.00;99.90
3300;DHT22;1662;49.310;8.134;2023-10-19T06:06:14;12.10;99.90
3300;DHT22;1662;49.310;8.134;2023-10-19T06:08:43;12.00;99.90
3300;DHT22;1662;49.310;8.134;2023-10-19T06:11:10;12.00;99.90
3300;DHT22;1662;49.310;8.134;2023-10-19T06:13:36;12.10;99.90
3300;DHT22;1662;49.310;8.134;2023-10-19T06:16:02;12.10;99.90
3300;DHT22;1662;49.310;8.134;2023-10-19T06:18:28;12.10;99.90
3300;DHT22;1662;49.310;8.134;2023-10-19T06:20:55;12.10;99.90
3300;DHT22;1662;49.310;8.134;2023-10-19T06:23:22;12.10;99.90
3300;DHT22;1662;49.310;8.134;2023-10-19T06:25:48;12.10;99.90
3300;DHT22;1662;49.310;8.134;2023-10-19T06:28:15;12.10;99.90
3300;DHT22;1662;49.310;8.134;2023-10-19T06:30:41;12.10;99.90
3300;DHT22;1662;49.310;8.134;2023-10-19T06:33:07;12.10;99.90
3300;DHT22;1662;49.310;8.134;2023-10-19T06:35:33;12.10;99.90
3300;DHT22;1662;49.310;8.134;2023-10-19T06:38:00;12.10;99.90
3300;DHT22;1662;49.310;8.134;2023-10-19T06:40:26;12.10;99.90
3300;DHT22;1662;49.310;8.134;2023-10-19T06:42:54;12.10;99.90
3300;DHT22;1662;49.310;8.134;2023-10-19T06:45:23;12.10;99.90
3300;DHT22;1662;49.310;8.134;2023-10-19T06:47:51;12.10;99.90
3300;DHT22;1662;49.310;8.134;2023-10-19T06:50:20;12.20;99.90
3300;DHT22;1662;49.310;8.134;2023-10-19T06:52:46;12.20;99.90
3300;DHT22;1662;49.310;8.134;2023-10-19T06:55:14;12.20;99.90
3300;DHT22;1662;49.310;8.134;2023-10-19T06:57:43;12.20;99.90
3300;DHT22;1662;49.310;8.134;2023-10-19T07:00:20;12.20;99.90
3300;DHT22;1662;49.310;8.134;2023-10-19T07:02:47;12.20;99.90
3300;DHT22;1662;49.310;8.134;2023-10-19T07:05:14;12.20;99.90
3300;DHT22;1662;49.310;8.134;2023-10-19T07:07:44;12.20;99.90
3300;DHT22;1662;49.310;8.134;2023-10-19T07:10:11;12.20;99.90
3300;DHT22;1662;49.310;8.134;2023-10-19T07:12:42;12.10;99.90
3300;DHT22;1662;49.310;8.134;2023-10-19T07:15:11;12.10;99.90
3300;DHT22;1662;49.310;8.134;2023-10-19T07:17:43;12.10;99.90
3300;DHT22;1662;49.310;8.134;2023-10-19T07:20:10;12.10;99.90
3300;DHT22;1662;49.310;8.134;2023-10-19T07:22:57;12.10;99.90
3300;DHT22;1662;49.310;8.134;2023-10-19T07:25:28;12.10;99.90
3300;DHT22;1662;49.310;8.134;2023-10-19T07:27:54;12.10;99.90
3300;DHT22;1662;49.310;8.134;2023-10-19T07:30:23;12.20;99.90
3300;DHT22;1662;49.310;8.134;2023-10-19T07:32:52;12.20;99.90
3300;DHT22;1662;49.310;8.134;2023-10-19T07:35:27;12.20;99.90
3300;DHT22;1662;49.310;8.134;2023-10-19T07:37:54;12.20;99.90
3300;DHT22;1662;49.310;8.134;2023-10-19T07:40:20;12.30;99.90
3300;DHT22;1662;49.310;8.134;2023-10-19T07:42:46;12.30;99.90
3300;DHT22;1662;49.310;8.134;2023-10-19T07:45:13;12.30;99.90
3300;DHT22;1662;49.310;8.134;2023-10-19T07:47:41;12.30;99.90
3300;DHT22;1662;49.310;8.134;2023-10-19T07:50:10;12.30;99.90
3300;DHT22;1662;49.310;8.134;2023-10-19T07:52:52;12.30;99.90
3300;DHT22;1662;49.310;8.134;2023-10-19T07:55:20;12.30;99.90
3300;DHT22;1662;49.310;8.134;2023-10-19T07:57:49;12.30;99.90
3300;DHT22;1662;49.310;8.134;2023-10-19T08:00:16;12.30;99.90
3300;DHT22;1662;49.310;8.134;2023-10-19T08:02:43;12.30;99.90
3300;DHT22;1662;49.310;8.134;2023-10-19T08:05:16;12.30;99.90
3300;DHT22;1662;49.310;8.134;2023-10-19T08:07:44;12.30;99.90
3300;DHT22;1662;49.310;8.134;2023-10-19T08:10:11;12.40;99.90
3300;DHT22;1662;49.310;8.134;2023-10-19T08:12:38;12.40;99.90
3300;DHT22;1662;49.310;8.134;2023-10-19T08:15:07;12.40;99.90
3300;DHT22;1662;49.310;8.134;2023-10-19T08:17:40;12.40;99.90
3300;DHT22;1662;49.310;8.134;2023-10-19T08:20:07;12.40;99.90
3300;DHT22;1662;49.310;8.134;2023-10-19T08:22:36;12.40;99.90
3300;DHT22;1662;49.310;8.134;2023-10-19T08:25:03;12.40;99.90
3300;DHT22;1662;49.310;8.134;2023-10-19T08:27:30;12.40;99.90
3300;DHT22;1662;49.310;8.134;2023-10-19T08:29:56;12.40;99.90
3300;DHT22;1662;49.310;8.134;2023-10-19T08:32:22;12.40;99.90
3300;DHT22;1662;49.310;8.134;2023-10-19T08:34:48;12.50;99.90
3300;DHT22;1662;49.310;8.134;2023-10-19T08:37:13;12.50;99.90
3300;DHT22;1662;49.310;8.134;2023-10-19T08:39:39;12.50;99.90
3300;DHT22;1662;49.310;8.134;2023-10-19T08:42:06;12.50;99.90
3300;DHT22;1662;49.310;8.134;2023-10-19T08:44:32;12.50;99.90
3300;DHT22;1662;49.310;8.134;2023-10-19T08:46:58;12.50;99.90
3300;DHT22;1662;49.310;8.134;2023-10-19T08:49:24;12.60;99.90
3300;DHT22;1662;49.310;8.134;2023-10-19T08:51:51;12.60;99.90
3300;DHT22;1662;49.310;8.134;2023-10-19T08:54:21;12.60;99.90
3300;DHT22;1662;49.310;8.134;2023-10-19T08:56:47;12.60;99.90
3300;DHT22;1662;49.310;8.134;2023-10-19T08:59:16;12.60;99.90
3300;DHT22;1662;49.310;8.134;2023-10-19T09:01:43;12.70;99.90
3300;DHT22;1662;49.310;8.134;2023-10-19T09:04:10;12.70;99.90
3300;DHT22;1662;49.310;8.134;2023-10-19T09:06:37;12.70;99.90
3300;DHT22;1662;49.310;8.134;2023-10-19T09:09:13;12.80;99.90
3300;DHT22;1662;49.310;8.134;2023-10-19T09:11:51;12.90;99.90
3300;DHT22;1662;49.310;8.134;2023-10-19T09:14:31;12.90;99.90
3300;DHT22;1662;49.310;8.134;2023-10-19T09:16:59;13.00;99.90
3300;DHT22;1662;49.310;8.134;2023-10-19T09:19:41;13.00;99.90
3300;DHT22;1662;49.310;8.134;2023-10-19T09:22:08;13.00;99.90
3300;DHT22;1662;49.310;8.134;2023-10-19T09:24:45;13.00;99.90
3300;DHT22;1662;49.310;8.134;2023-10-19T09:27:11;13.00;99.90
3300;DHT22;1662;49.310;8.134;2023-10-19T09:29:38;13.00;99.90
3300;DHT22;1662;49.310;8.134;2023-10-19T09:32:05;13.00;99.90
3300;DHT22;1662;49.310;8.134;2023-10-19T09:34:32;13.10;99.90
3300;DHT22;1662;49.310;8.134;2023-10-19T09:37:00;13.10;99.90
3300;DHT22;1662;49.310;8.134;2023-10-19T09:39:27;13.10;99.90
3300;DHT22;1662;49.310;8.134;2023-10-19T09:42:00;13.10;99.90
3300;DHT22;1662;49.310;8.134;2023-10-19T09:44:39;13.20;99.90
3300;DHT22;1662;49.310;8.134;2023-10-19T09:47:14;13.20;99.90
3300;DHT22;1662;49.310;8.134;2023-10-19T09:49:41;13.20;99.90
3300;DHT22;1662;49.310;8.134;2023-10-19T09:52:08;13.20;99.90
3300;DHT22;1662;49.310;8.134;2023-10-19T09:54:56;13.20;99.90
3300;DHT22;1662;49.310;8.134;2023-10-19T09:57:31;13.20;99.90
3300;DHT22;1662;49.310;8.134;2023-10-19T10:00:02;13.20;99.90
3300;DHT22;1662;49.310;8.134;2023-10-19T10:02:48;13.30;99.90
3300;DHT22;1662;49.310;8.134;2023-10-19T10:08:29;13.30;99.90
3300;DHT22;1662;49.310;8.134;2023-10-19T10:10:55;13.30;99.90
3300;DHT22;1662;49.310;8.134;2023-10-19T10:15:52;13.40;99.90
3300;DHT22;1662;49.310;8.134;2023-10-19T10:18:18;13.40;99.90
3300;DHT22;1662;49.310;8.134;2023-10-19T10:20:44;13.40;99.90
3300;DHT22;1662;49.310;8.134;2023-10-19T10:23:20;13.40;99.90
3300;DHT22;1662;49.310;8.134;2023-10-19T10:25:50;13.40;99.90
3300;DHT22;1662;49.310;8.134;2023-10-19T10:28:20;13.40;99.90
3300;DHT22;1662;49.310;8.134;2023-10-19T10:34:05;13.40;99.90
3300;DHT22;1662;49.310;8.134;2023-10-19T10:37:05;13.40;99.90
3300;DHT22;1662;49.310;8.134;2023-10-19T10:39:35;13.40;99.90
3300;DHT22;1662;49.310;8.134;2023-10-19T10:42:05;13.40;99.90
3300;DHT22;1662;49.310;8.134;2023-10-19T10:44:38;13.40;99.90
3300;DHT22;1662;49.310;8.134;2023-10-19T10:47:09;13.40;99.90
3300;DHT22;1662;49.310;8.134;2023-10-19T10:49:57;13.40;99.90
3300;DHT22;1662;49.310;8.134;2023-10-19T10:52:31;13.40;99.90
3300;DHT22;1662;49.310;8.134;2023-10-19T10:55:10;13.50;99.90
3300;DHT22;1662;49.310;8.134;2023-10-19T10:57:44;13.50;99.90
3300;DHT22;1662;49.310;8.134;2023-10-19T11:00:14;13.50;99.90
3300;DHT22;1662;49.310;8.134;2023-10-19T11:02:47;13.50;99.90
3300;DHT22;1662;49.310;8.134;2023-10-19T11:05:26;13.50;99.90
3300;DHT22;1662;49.310;8.134;2023-10-19T11:08:07;13.60;99.90
3300;DHT22;1662;49.310;8.134;2023-10-19T11:10:35;13.60;99.90
3300;DHT22;1662;49.310;8.134;2023-10-19T11:13:06;13.60;99.90
3300;DHT22;1662;49.310;8.134;2023-10-19T11:15:33;13.60;99.90
3300;DHT22;1662;49.310;8.134;2023-10-19T11:17:59;13.60;99.90
3300;DHT22;1662;49.310;8.134;2023-10-19T11:20:25;13.60;99.90
3300;DHT22;1662;49.310;8.134;2023-10-19T11:22:53;13.70;99.90
3300;DHT22;1662;49.310;8.134;2023-10-19T11:25:26;13.70;99.90
3300;DHT22;1662;49.310;8.134;2023-10-19T11:27:54;13.70;99.90
3300;DHT22;1662;49.310;8.134;2023-10-19T11:30:31;13.70;99.90
3300;DHT22;1662;49.310;8.134;2023-10-19T11:32:57;13.70;99.90
3300;DHT22;1662;49.310;8.134;2023-10-19T11:35:25;13.70;99.90
3300;DHT22;1662;49.310;8.134;2023-10-19T11:37:52;13.70;99.90
3300;DHT22;1662;49.310;8.134;2023-10-19T11:40:20;13.80;99.90
3300;DHT22;1662;49.310;8.134;2023-10-19T11:42:45;13.80;99.90
3300;DHT22;1662;49.310;8.134;2023-10-19T11:45:12;13.80;99.90
3300;DHT22;1662;49.310;8.134;2023-10-19T11:47:38;13.80;99.90
3300;DHT22;1662;49.310;8.134;2023-10-19T11:50:04;13.80;99.90
3300;DHT22;1662;49.310;8.134;2023-10-19T11:52:30;13.80;99.90
3300;DHT22;1662;49.310;8.134;2023-10-19T11:54:56;13.80;99.90
3300;DHT22;1662;49.310;8.134;2023-10-19T11:57:24;13.80;99.90
3300;DHT22;1662;49.310;8.134;2023-10-19T11:59:50;13.80;99.90
3300;DHT22;1662;49.310;8.134;2023-10-19T12:02:21;13.90;99.90
3300;DHT22;1662;49.310;8.134;2023-10-19T12:04:47;13.90;99.90
3300;DHT22;1662;49.310;8.134;2023-10-19T12:07:12;13.90;99.90
3300;DHT22;1662;49.310;8.134;2023-10-19T12:09:38;13.90;99.90
3300;DHT22;1662;49.310;8.134;2023-10-19T12:12:07;13.90;99.90
3300;DHT22;1662;49.310;8.134;2023-10-19T12:14:36;14.00;99.90
3300;DHT22;1662;49.310;8.134;2023-10-19T12:17:02;14.00;99.90
3300;DHT22;1662;49.310;8.134;2023-10-19T12:19:29;14.00;99.90
3300;DHT22;1662;49.310;8.134;2023-10-19T12:21:56;14.10;99.90
3300;DHT22;1662;49.310;8.134;2023-10-19T12:24:21;14.10;99.90
3300;DHT22;1662;49.310;8.134;2023-10-19T12:26:48;14.20;99.90
3300;DHT22;1662;49.310;8.134;2023-10-19T12:29:14;14.20;99.90
3300;DHT22;1662;49.310;8.134;2023-10-19T12:31:42;14.20;99.90
3300;DHT22;1662;49.310;8.134;2023-10-19T12:34:08;14.30;99.90
3300;DHT22;1662;49.310;8.134;2023-10-19T12:36:36;14.30;99.90
3300;DHT22;1662;49.310;8.134;2023-10-19T12:39:03;14.30;99.90
3300;DHT22;1662;49.310;8.134;2023-10-19T12:41:31;14.40;99.90
3300;DHT22;1662;49.310;8.134;2023-10-19T12:43:57;14.40;99.90
3300;DHT22;1662;49.310;8.134;2023-10-19T12:46:24;14.40;99.90
3300;DHT22;1662;49.310;8.134;2023-10-19T12:48:56;14.50;99.90
3300;DHT22;1662;49.310;8.134;2023-10-19T12:51:24;14.50;99.90
3300;DHT22;1662;49.310;8.134;2023-10-19T12:53:53;14.50;99.90
3300;DHT22;1662;49.310;8.134;2023-10-19T12:56:20;14.60;99.90
3300;DHT22;1662;49.310;8.134;2023-10-19T12:58:46;14.60;99.90
3300;DHT22;1662;49.310;8.134;2023-10-19T13:01:14;14.60;99.90
3300;DHT22;1662;49.310;8.134;2023-10-19T13:03:46;14.60;99.90
3300;DHT22;1662;49.310;8.134;2023-10-19T13:06:13;14.70;99.90
3300;DHT22;1662;49.310;8.134;2023-10-19T13:08:39;14.70;99.90
3300;DHT22;1662;49.310;8.134;2023-10-19T13:11:08;14.70;99.90
3300;DHT22;1662;49.310;8.134;2023-10-19T13:13:35;14.70;99.90
3300;DHT22;1662;49.310;8.134;2023-10-19T13:16:04;14.80;99.90
3300;DHT22;1662;49.310;8.134;2023-10-19T13:18:35;14.80;99.90
3300;DHT22;1662;49.310;8.134;2023-10-19T13:21:01;14.80;99.90
3300;DHT22;1662;49.310;8.134;2023-10-19T13:23:32;14.80;99.90
3300;DHT22;1662;49.310;8.134;2023-10-19T13:25:59;14.80;99.90
3300;DHT22;1662;49.310;8.134;2023-10-19T13:28:46;14.80;99.90
3300;DHT22;1662;49.310;8.134;2023-10-19T13:31:12;14.80;99.90
3300;DHT22;1662;49.310;8.134;2023-10-19T13:33:42;14.80;99.90
3300;DHT22;1662;49.310;8.134;2023-10-19T13:36:09;14.80;99.90
3300;DHT22;1662;49.310;8.134;2023-10-19T13:38:34;14.80;99.90
3300;DHT22;1662;49.310;8.134;2023-10-19T13:41:09;14.80;99.90
3300;DHT22;1662;49.310;8.134;2023-10-19T13:43:42;14.80;99.90
3300;DHT22;1662;49.310;8.134;2023-10-19T13:46:07;14.90;99.90
3300;DHT22;1662;49.310;8.134;2023-10-19T13:48:33;14.90;99.90
3300;DHT22;1662;49.310;8.134;2023-10-19T13:51:04;14.90;99.90
3300;DHT22;1662;49.310;8.134;2023-10-19T13:53:39;14.90;99.90
3300;DHT22;1662;49.310;8.134;2023-10-19T13:56:09;14.90;99.90
3300;DHT22;1662;49.310;8.134;2023-10-19T13:58:35;15.00;99.90
3300;DHT22;1662;49.310;8.134;2023-10-19T14:01:00;15.00;99.90
3300;DHT22;1662;49.310;8.134;2023-10-19T14:03:26;15.00;99.90
3300;DHT22;1662;49.310;8.134;2023-10-19T14:05:52;15.00;99.90
3300;DHT22;1662;49.310;8.134;2023-10-19T14:08:22;15.00;99.90
3300;DHT22;1662;49.310;8.134;2023-10-19T14:10:47;14.90;99.90
3300;DHT22;1662;49.310;8.134;2023-10-19T14:13:13;14.90;99.90
3300;DHT22;1662;49.310;8.134;2023-10-19T14:15:42;15.00;99.90
3300;DHT22;1662;49.310;8.134;2023-10-19T14:18:09;15.00;99.90
3300;DHT22;1662;49.310;8.134;2023-10-19T14:20:34;15.00;99.90
3300;DHT22;1662;49.310;8.134;2023-10-19T14:23:01;15.00;99.90
3300;DHT22;1662;49.310;8.134;2023-10-19T14:25:30;15.10;99.90
3300;DHT22;1662;49.310;8.134;2023-10-19T14:27:56;15.10;99.90
3300;DHT22;1662;49.310;8.134;2023-10-19T14:30:28;15.10;99.90
3300;DHT22;1662;49.310;8.134;2023-10-19T14:32:54;15.20;99.90
3300;DHT22;1662;49.310;8.134;2023-10-19T14:35:23;15.20;99.90
3300;DHT22;1662;49.310;8.134;2023-10-19T14:37:52;15.20;99.90
3300;DHT22;1662;49.310;8.134;2023-10-19T14:40:26;15.30;99.90
3300;DHT22;1662;49.310;8.134;2023-10-19T14:42:54;15.30;99.90
3300;DHT22;1662;49.310;8.134;2023-10-19T14:45:21;15.30;99.90
3300;DHT22;1662;49.310;8.134;2023-10-19T14:47:51;15.20;99.90
3300;DHT22;1662;49.310;8.134;2023-10-19T14:50:17;15.20;99.90
3300;DHT22;1662;49.310;8.134;2023-10-19T14:52:45;15.20;99.90
3300;DHT22;1662;49.310;8.134;2023-10-19T14:55:14;15.30;99.90
3300;DHT22;1662;49.310;8.134;2023-10-19T14:57:42;15.30;99.90
3300;DHT22;1662;49.310;8.134;2023-10-19T15:00:10;15.30;99.90
3300;DHT22;1662;49.310;8.134;2023-10-19T15:02:51;15.30;99.90
3300;DHT22;1662;49.310;8.134;2023-10-19T15:05:18;15.30;99.90
3300;DHT22;1662;49.310;8.134;2023-10-19T15:07:45;15.30;99.90
3300;DHT22;1662;49.310;8.134;2023-10-19T15:10:17;15.30;99.90
3300;DHT22;1662;49.310;8.134;2023-10-19T15:12:43;15.30;99.90
3300;DHT22;1662;49.310;8.134;2023-10-19T15:15:09;15.30;99.90
3300;DHT22;1662;49.310;8.134;2023-10-19T15:17:39;15.30;99.90
3300;DHT22;1662;49.310;8.134;2023-10-19T15:20:06;15.30;99.90
3300;DHT22;1662;49.310;8.134;2023-10-19T15:22:32;15.30;99.90
3300;DHT22;1662;49.310;8.134;2023-10-19T15:24:58;15.30;99.90
3300;DHT22;1662;49.310;8.134;2023-10-19T15:27:24;15.30;99.90
3300;DHT22;1662;49.310;8.134;2023-10-19T15:29:50;15.40;99.90
3300;DHT22;1662;49.310;8.134;2023-10-19T15:32:16;15.30;99.90
3300;DHT22;1662;49.310;8.134;2023-10-19T15:34:42;15.30;99.90
3300;DHT22;1662;49.310;8.134;2023-10-19T15:37:08;15.30;99.90
3300;DHT22;1662;49.310;8.134;2023-10-19T15:39:34;15.30;99.90
3300;DHT22;1662;49.310;8.134;2023-10-19T15:42:00;15.30;99.90
3300;DHT22;1662;49.310;8.134;2023-10-19T15:44:28;15.30;99.90
3300;DHT22;1662;49.310;8.134;2023-10-19T15:46:54;15.30;99.90
3300;DHT22;1662;49.310;8.134;2023-10-19T15:49:22;15.30;99.90
3300;DHT22;1662;49.310;8.134;2023-10-19T15:51:48;15.30;99.90
3300;DHT22;1662;49.310;8.134;2023-10-19T15:54:14;15.30;99.90
3300;DHT22;1662;49.310;8.134;2023-10-19T15:56:40;15.30;99.90
3300;DHT22;1662;49.310;8.134;2023-10-19T15:59:05;15.30;99.90
3300;DHT22;1662;49.310;8.134;2023-10-19T16:01:32;15.20;99.90
3300;DHT22;1662;49.310;8.134;2023-10-19T16:03:57;15.20;99.90
3300;DHT22;1662;49.310;8.134;2023-10-19T16:06:23;15.30;99.90
3300;DHT22;1662;49.310;8.134;2023-10-19T16:08:49;15.30;99.90
3300;DHT22;1662;49.310;8.134;2023-10-19T16:11:14;15.30;99.90
3300;DHT22;1662;49.310;8.134;2023-10-19T16:13:43;15.20;99.90
3300;DHT22;1662;49.310;8.134;2023-10-19T16:16:10;15.20;99.90
3300;DHT22;1662;49.310;8.134;2023-10-19T16:18:38;15.20;99.90
3300;DHT22;1662;49.310;8.134;2023-10-19T16:21:05;15.10;99.90
3300;DHT22;1662;49.310;8.134;2023-10-19T16:23:31;15.10;99.90
3300;DHT22;1662;49.310;8.134;2023-10-19T16:26:00;15.10;99.90
3300;DHT22;1662;49.310;8.134;2023-10-19T16:28:27;15.20;99.90